createdAt,value
2018-05-12T00:00:58.463Z,21.90
2018-05-12T00:01:58.475Z,20.10
2018-05-12T00:02:58.491Z,19.20
2018-05-12T00:03:58.502Z,14.50
2018-05-12T00:04:58.624Z,14.80
2018-05-12T00:05:58.542Z,16.00
2018-05-12T00:06:58.554Z,13.90
2018-05-12T00:07:58.570Z,23.80
2018-05-12T00:08:58.605Z,22.20
2018-05-12T00:09:58.777Z,21.40
2018-05-12T00:10:58.648Z,20.80
2018-05-12T00:11:58.667Z,15.20
2018-05-12T00:12:58.676Z,18.80
2018-05-12T00:13:58.686Z,18.00
2018-05-12T00:14:58.851Z,20.20
2018-05-12T00:15:58.706Z,16.10
2018-05-12T00:16:58.727Z,20.40
2018-05-12T00:17:58.728Z,20.30
2018-05-12T00:18:58.774Z,16.20
2018-05-12T00:19:58.915Z,16.30
2018-05-12T00:20:58.785Z,17.20
2018-05-12T00:21:58.792Z,16.30
2018-05-12T00:22:58.813Z,21.80
2018-05-12T00:23:58.845Z,25.00
2018-05-12T00:24:58.953Z,32.60
2018-05-12T00:25:58.891Z,26.20
2018-05-12T00:26:58.908Z,27.70
2018-05-12T00:27:58.899Z,24.80
2018-05-12T00:28:58.911Z,26.40
2018-05-12T00:29:59.106Z,24.40
2018-05-12T00:30:59.044Z,29.50
2018-05-12T00:31:58.973Z,26.50
2018-05-12T00:32:59.005Z,35.30
2018-05-12T00:33:58.994Z,36.50
2018-05-12T00:34:59.183Z,32.30
2018-05-12T00:35:59.040Z,38.80
2018-05-12T00:36:59.041Z,36.10
2018-05-12T00:37:59.067Z,36.80
2018-05-12T00:38:59.104Z,40.80
2018-05-12T00:39:59.202Z,36.80
2018-05-12T00:40:59.104Z,35.00
2018-05-12T00:41:59.121Z,40.10
2018-05-12T00:42:59.229Z,39.00
2018-05-12T00:43:59.151Z,30.30
2018-05-12T00:44:59.271Z,34.70
2018-05-12T00:45:59.209Z,31.20
2018-05-12T00:46:59.199Z,32.40
2018-05-12T00:47:59.219Z,30.30
2018-05-12T00:48:59.227Z,34.50
2018-05-12T00:49:59.351Z,37.80
2018-05-12T00:50:59.290Z,29.60
2018-05-12T00:51:59.284Z,34.80
2018-05-12T00:52:59.298Z,31.90
2018-05-12T00:53:59.339Z,34.80
2018-05-12T00:54:59.480Z,37.10
2018-05-12T00:55:59.348Z,27.20
2018-05-12T00:56:59.358Z,30.80
2018-05-12T00:57:59.400Z,31.50
2018-05-12T00:58:59.390Z,36.60
2018-05-12T00:59:59.561Z,41.00
2018-05-12T01:00:59.450Z,31.80
2018-05-12T01:01:59.452Z,29.20
2018-05-12T01:02:59.451Z,32.10
2018-05-12T01:03:59.477Z,42.90
2018-05-12T01:04:59.662Z,42.00
2018-05-12T01:05:59.511Z,40.20
2018-05-12T01:06:59.517Z,33.90
2018-05-12T01:07:59.548Z,35.80
2018-05-12T01:08:59.552Z,34.50
2018-05-12T01:09:59.745Z,42.10
2018-05-12T01:10:59.585Z,46.90
2018-05-12T01:11:59.626Z,33.10
2018-05-12T01:12:59.616Z,40.30
2018-05-12T01:13:59.633Z,40.10
2018-05-12T01:14:59.821Z,45.00
2018-05-12T01:15:59.691Z,43.80
2018-05-12T01:16:59.686Z,43.80
2018-05-12T01:17:59.721Z,55.70
2018-05-12T01:18:59.724Z,45.40
2018-05-12T01:19:59.827Z,43.20
2018-05-12T01:20:59.769Z,50.10
2018-05-12T01:21:59.761Z,42.90
2018-05-12T01:22:59.779Z,49.30
2018-05-12T01:23:59.816Z,50.60
2018-05-12T01:24:59.928Z,51.30
2018-05-12T01:25:59.831Z,44.10
2018-05-12T01:26:59.846Z,46.40
2018-05-12T01:27:59.876Z,52.60
2018-05-12T01:28:59.864Z,54.90
2018-05-12T01:29:59.994Z,50.50
2018-05-12T01:30:59.927Z,45.10
2018-05-12T01:31:59.918Z,57.40
2018-05-12T01:32:59.955Z,53.80
2018-05-12T01:33:59.945Z,55.30
2018-05-12T01:34:59.974Z,55.50
2018-05-12T01:36:00.153Z,53.70
2018-05-12T01:37:00.025Z,57.10
2018-05-12T01:38:00.005Z,55.60
2018-05-12T01:39:00.028Z,50.50
2018-05-12T01:40:00.044Z,58.30
2018-05-12T01:41:00.213Z,52.60
2018-05-12T01:42:00.073Z,52.50
2018-05-12T01:43:00.094Z,47.60
2018-05-12T01:44:00.103Z,49.60
2018-05-12T01:45:00.136Z,49.20
2018-05-12T01:46:00.287Z,46.70
2018-05-12T01:47:00.182Z,50.70
2018-05-12T01:48:00.166Z,47.40
2018-05-12T01:49:00.175Z,46.50
2018-05-12T01:50:00.199Z,46.20
2018-05-12T01:51:00.372Z,47.70
2018-05-12T01:52:00.229Z,46.00
2018-05-12T01:53:00.242Z,43.10
2018-05-12T01:54:00.264Z,45.80
2018-05-12T01:55:00.275Z,43.20
2018-05-12T01:56:00.441Z,47.30
2018-05-12T01:57:00.302Z,44.80
2018-05-12T01:58:00.319Z,47.00
2018-05-12T01:59:00.364Z,46.80
2018-05-12T02:00:00.368Z,47.80
2018-05-12T02:01:00.523Z,48.60
2018-05-12T02:02:00.408Z,47.20
2018-05-12T02:03:00.396Z,51.80
2018-05-12T02:04:00.415Z,48.50
2018-05-12T02:05:00.470Z,46.10
2018-05-12T02:06:00.591Z,42.80
2018-05-12T02:07:00.472Z,46.50
2018-05-12T02:08:00.478Z,40.00
2018-05-12T02:09:00.515Z,38.20
2018-05-12T02:10:00.503Z,42.70
2018-05-12T02:11:00.693Z,42.90
2018-05-12T02:12:00.533Z,40.40
2018-05-12T02:13:00.572Z,44.10
2018-05-12T02:14:00.562Z,38.10
2018-05-12T02:15:00.581Z,41.70
2018-05-12T02:16:00.777Z,36.50
2018-05-12T02:17:00.636Z,37.10
2018-05-12T02:18:00.625Z,35.70
2018-05-12T02:19:00.639Z,32.30
2018-05-12T02:20:00.650Z,35.50
2018-05-12T02:21:00.819Z,37.40
2018-05-12T02:22:00.687Z,39.70
2018-05-12T02:23:00.727Z,34.90
2018-05-12T02:24:00.713Z,28.40
2018-05-12T02:25:00.756Z,32.00
2018-05-12T02:26:00.896Z,38.30
2018-05-12T02:27:00.769Z,32.50
2018-05-12T02:28:00.778Z,32.30
2018-05-12T02:29:00.813Z,33.40
2018-05-12T02:30:00.807Z,31.50
2018-05-12T02:31:00.994Z,37.40
2018-05-12T02:32:00.866Z,31.40
2018-05-12T02:33:00.874Z,30.60
2018-05-12T02:34:00.863Z,25.70
2018-05-12T02:35:00.905Z,27.80
2018-05-12T02:36:00.900Z,26.50
2018-05-12T02:37:01.086Z,29.10
2018-05-12T02:38:00.949Z,28.60
2018-05-12T02:39:00.937Z,27.90
2018-05-12T02:40:00.969Z,29.50
2018-05-12T02:41:00.992Z,29.30
2018-05-12T02:42:01.157Z,29.10
2018-05-12T02:43:01.026Z,29.00
2018-05-12T02:44:01.011Z,27.70
2018-05-12T02:45:01.061Z,29.10
2018-05-12T02:46:01.066Z,25.80
2018-05-12T02:47:01.210Z,25.40
2018-05-12T02:48:01.090Z,25.40
2018-05-12T02:49:01.089Z,27.80
2018-05-12T02:50:01.099Z,26.20
2018-05-12T02:51:01.111Z,28.10
2018-05-12T02:52:01.245Z,27.30
2018-05-12T02:53:01.151Z,27.90
2018-05-12T02:54:01.174Z,29.30
2018-05-12T02:55:01.203Z,27.10
2018-05-12T02:56:01.222Z,28.60
2018-05-12T02:57:01.304Z,23.60
2018-05-12T02:58:01.246Z,25.00
2018-05-12T02:59:01.234Z,28.30
2018-05-12T03:00:01.277Z,28.10
2018-05-12T03:01:01.265Z,38.80
2018-05-12T03:02:01.458Z,33.30
2018-05-12T03:03:01.301Z,29.30
2018-05-12T03:04:01.334Z,27.50
2018-05-12T03:05:01.335Z,35.20
2018-05-12T03:06:01.341Z,28.30
2018-05-12T03:07:01.450Z,34.40
2018-05-12T03:08:01.394Z,36.00
2018-05-12T03:09:01.411Z,34.50
2018-05-12T03:10:01.423Z,36.90
2018-05-12T03:11:01.446Z,34.80
2018-05-12T03:12:01.589Z,31.70
2018-05-12T03:13:01.440Z,35.90
2018-05-12T03:14:01.452Z,36.50
2018-05-12T03:15:01.469Z,38.30
2018-05-12T03:16:01.483Z,39.70
2018-05-12T03:17:01.593Z,39.60
2018-05-12T03:18:01.514Z,41.90
2018-05-12T03:19:01.556Z,39.30
2018-05-12T03:20:01.548Z,27.80
2018-05-12T03:21:01.582Z,34.30
2018-05-12T03:22:01.680Z,36.80
2018-05-12T03:23:01.584Z,33.20
2018-05-12T03:24:01.624Z,35.20
2018-05-12T03:25:01.638Z,31.90
2018-05-12T03:26:01.653Z,24.20
2018-05-12T03:27:01.820Z,23.40
2018-05-12T03:28:01.663Z,29.50
2018-05-12T03:29:01.683Z,26.10
2018-05-12T03:30:01.716Z,26.90
2018-05-12T03:31:01.726Z,28.00
2018-05-12T03:32:01.816Z,24.30
2018-05-12T03:33:01.757Z,26.10
2018-05-12T03:34:01.758Z,30.10
2018-05-12T03:35:01.791Z,21.00
2018-05-12T03:36:01.785Z,27.00
2018-05-12T03:37:01.947Z,25.40
2018-05-12T03:38:01.805Z,24.00
2018-05-12T03:39:01.820Z,28.40
2018-05-12T03:40:01.856Z,25.90
2018-05-12T03:41:01.875Z,24.30
2018-05-12T03:42:01.860Z,24.20
2018-05-12T03:43:01.988Z,23.30
2018-05-12T03:44:01.893Z,22.10
2018-05-12T03:45:01.899Z,24.00
2018-05-12T03:46:01.950Z,20.60
2018-05-12T03:47:01.960Z,27.70
2018-05-12T03:48:02.109Z,25.90
2018-05-12T03:49:01.964Z,25.70
2018-05-12T03:50:01.999Z,20.00
2018-05-12T03:51:02.017Z,25.60
2018-05-12T03:52:02.015Z,25.10
2018-05-12T03:53:02.133Z,23.50
2018-05-12T03:54:02.064Z,18.80
2018-05-12T03:55:02.061Z,20.10
2018-05-12T03:56:02.071Z,22.60
2018-05-12T03:57:02.082Z,23.40
2018-05-12T03:58:02.223Z,21.00
2018-05-12T03:59:02.111Z,23.80
2018-05-12T04:00:02.202Z,22.90
2018-05-12T04:01:02.164Z,20.60
2018-05-12T04:02:02.156Z,17.50
2018-05-12T04:03:02.270Z,22.60
2018-05-12T04:04:02.210Z,18.90
2018-05-12T04:05:02.192Z,22.40
2018-05-12T04:06:02.209Z,18.90
2018-05-12T04:07:02.235Z,21.30
2018-05-12T04:08:02.401Z,22.20
2018-05-12T04:09:02.279Z,20.70
2018-05-12T04:10:02.295Z,27.40
2018-05-12T04:11:02.286Z,24.60
2018-05-12T04:12:02.328Z,29.20
2018-05-12T04:13:02.438Z,24.80
2018-05-12T04:14:02.325Z,28.60
2018-05-12T04:15:02.347Z,26.60
2018-05-12T04:16:02.366Z,27.00
2018-05-12T04:17:02.367Z,23.00
2018-05-12T04:18:02.491Z,21.80
2018-05-12T04:19:02.412Z,25.50
2018-05-12T04:20:02.414Z,20.40
2018-05-12T04:21:02.488Z,20.00
2018-05-12T04:22:02.441Z,23.10
2018-05-12T04:23:02.622Z,25.60
2018-05-12T04:24:02.486Z,18.70
2018-05-12T04:25:02.506Z,17.30
2018-05-12T04:26:02.528Z,17.20
2018-05-12T04:27:02.512Z,19.10
2018-05-12T04:28:02.625Z,19.80
2018-05-12T04:29:02.544Z,24.40
2018-05-12T04:30:02.586Z,24.60
2018-05-12T04:31:02.601Z,24.20
2018-05-12T04:32:02.615Z,19.90
2018-05-12T04:33:02.735Z,17.50
2018-05-12T04:34:02.617Z,20.00
2018-05-12T04:35:02.628Z,23.40
2018-05-12T04:36:02.646Z,18.70
2018-05-12T04:37:02.660Z,20.60
2018-05-12T04:38:02.787Z,20.80
2018-05-12T04:39:02.690Z,17.60
2018-05-12T04:40:02.699Z,21.70
2018-05-12T04:41:02.721Z,18.70
2018-05-12T04:42:02.755Z,19.90
2018-05-12T04:43:02.897Z,20.70
2018-05-12T04:44:02.762Z,25.00
2018-05-12T04:45:02.768Z,19.80
2018-05-12T04:46:02.825Z,20.00
2018-05-12T04:47:02.807Z,21.70
2018-05-12T04:48:02.818Z,19.10
2018-05-12T04:49:02.989Z,17.80
2018-05-12T04:50:02.863Z,21.20
2018-05-12T04:51:02.883Z,20.20
2018-05-12T04:52:02.888Z,20.30
2018-05-12T04:53:02.887Z,19.60
2018-05-12T04:54:02.914Z,17.50
2018-05-12T04:55:03.069Z,17.80
2018-05-12T04:56:02.958Z,18.70
2018-05-12T04:57:02.944Z,15.50
2018-05-12T04:58:02.982Z,18.40
2018-05-12T04:59:02.984Z,14.90
2018-05-12T05:00:03.166Z,20.40
2018-05-12T05:01:02.997Z,15.20
2018-05-12T05:02:03.019Z,14.60
2018-05-12T05:03:03.036Z,16.90
2018-05-12T05:04:03.047Z,13.20
2018-05-12T05:05:03.161Z,16.10
2018-05-12T05:06:03.079Z,14.70
2018-05-12T05:07:03.086Z,13.00
2018-05-12T05:08:03.100Z,13.20
2018-05-12T05:09:03.115Z,14.70
2018-05-12T05:10:03.287Z,12.90
2018-05-12T05:11:03.168Z,10.80
2018-05-12T05:12:03.183Z,15.40
2018-05-12T05:13:03.199Z,13.30
2018-05-12T05:14:03.214Z,11.60
2018-05-12T05:15:03.304Z,11.40
2018-05-12T05:16:03.221Z,12.60
2018-05-12T05:17:03.252Z,12.70
2018-05-12T05:18:03.271Z,12.80
2018-05-12T05:19:03.260Z,12.10
2018-05-12T05:20:03.421Z,12.40
2018-05-12T05:21:03.280Z,11.90
2018-05-12T05:22:03.294Z,12.30
2018-05-12T05:23:03.313Z,11.70
2018-05-12T05:24:03.329Z,10.30
2018-05-12T05:25:03.467Z,10.90
2018-05-12T05:26:03.382Z,11.20
2018-05-12T05:27:03.397Z,11.00
2018-05-12T05:28:03.383Z,10.50
2018-05-12T05:29:03.400Z,12.40
2018-05-12T05:30:03.608Z,10.50
2018-05-12T05:31:03.426Z,9.90
2018-05-12T05:32:03.443Z,15.00
2018-05-12T05:33:03.481Z,10.50
2018-05-12T05:34:03.469Z,11.00
2018-05-12T05:35:03.581Z,11.40
2018-05-12T05:36:03.523Z,13.80
2018-05-12T05:37:03.516Z,12.70
2018-05-12T05:38:03.553Z,9.50
2018-05-12T05:39:03.538Z,10.20
2018-05-12T05:40:03.734Z,9.20
2018-05-12T05:41:03.577Z,10.10
2018-05-12T05:42:03.582Z,11.70
2018-05-12T05:43:03.624Z,11.40
2018-05-12T05:44:03.610Z,10.90
2018-05-12T05:45:03.723Z,8.20
2018-05-12T05:46:03.639Z,9.00
2018-05-12T05:47:03.677Z,7.20
2018-05-12T05:48:03.679Z,6.10
2018-05-12T05:49:03.683Z,10.10
2018-05-12T05:50:03.797Z,8.60
2018-05-12T05:51:03.705Z,9.20
2018-05-12T05:52:03.721Z,7.80
2018-05-12T05:53:03.732Z,9.30
2018-05-12T05:54:03.745Z,9.10
2018-05-12T05:55:03.857Z,8.80
2018-05-12T05:56:03.781Z,7.70
2018-05-12T05:57:03.816Z,7.30
2018-05-12T05:58:03.804Z,8.30
2018-05-12T05:59:03.819Z,8.50
2018-05-12T06:00:04.000Z,9.90
2018-05-12T06:01:03.853Z,9.90
2018-05-12T06:02:03.875Z,8.30
2018-05-12T06:03:03.906Z,11.00
2018-05-12T06:04:03.914Z,9.00
2018-05-12T06:05:04.025Z,8.30
2018-05-12T06:06:03.943Z,11.20
2018-05-12T06:07:04.024Z,12.90
2018-05-12T06:08:03.941Z,7.20
2018-05-12T06:09:03.958Z,6.70
2018-05-12T06:10:04.095Z,8.90
2018-05-12T06:11:03.984Z,10.00
2018-05-12T06:12:04.010Z,11.30
2018-05-12T06:13:04.015Z,7.80
2018-05-12T06:14:04.041Z,7.70
2018-05-12T06:15:04.150Z,7.40
2018-05-12T06:16:04.086Z,8.30
2018-05-12T06:17:04.071Z,9.50
2018-05-12T06:18:04.098Z,9.40
2018-05-12T06:19:04.113Z,7.70
2018-05-12T06:20:04.266Z,7.30
2018-05-12T06:21:04.151Z,8.00
2018-05-12T06:22:04.173Z,9.60
2018-05-12T06:23:04.158Z,9.60
2018-05-12T06:24:04.169Z,10.20
2018-05-12T06:25:04.311Z,10.60
2018-05-12T06:26:04.204Z,11.40
2018-05-12T06:27:04.211Z,9.50
2018-05-12T06:28:04.232Z,7.80
2018-05-12T06:29:04.239Z,8.00
2018-05-12T06:30:04.383Z,11.50
2018-05-12T06:31:04.269Z,11.20
2018-05-12T06:32:04.284Z,8.70
2018-05-12T06:33:04.326Z,8.30
2018-05-12T06:34:04.312Z,8.70
2018-05-12T06:35:04.455Z,10.50
2018-05-12T06:36:04.370Z,8.30
2018-05-12T06:37:04.374Z,8.30
2018-05-12T06:38:04.393Z,8.10
2018-05-12T06:39:04.412Z,10.30
2018-05-12T06:40:04.548Z,9.20
2018-05-12T06:41:04.437Z,8.30
2018-05-12T06:42:04.456Z,7.80
2018-05-12T06:43:04.467Z,9.70
2018-05-12T06:44:04.485Z,8.10
2018-05-12T06:45:04.575Z,7.60
2018-05-12T06:46:04.484Z,11.00
2018-05-12T06:47:04.531Z,12.20
2018-05-12T06:48:04.526Z,8.50
2018-05-12T06:49:04.531Z,11.00
2018-05-12T06:50:04.644Z,7.80
2018-05-12T06:51:04.558Z,9.60
2018-05-12T06:52:04.601Z,10.40
2018-05-12T06:53:04.589Z,10.70
2018-05-12T06:54:04.605Z,9.20
2018-05-12T06:55:04.766Z,9.90
2018-05-12T06:56:04.634Z,8.70
2018-05-12T06:57:04.648Z,7.80
2018-05-12T06:58:04.687Z,9.80
2018-05-12T06:59:04.707Z,8.10
2018-05-12T07:00:04.805Z,9.10
2018-05-12T07:01:04.806Z,10.30
2018-05-12T07:02:04.721Z,7.10
2018-05-12T07:03:04.735Z,7.70
2018-05-12T07:04:04.757Z,8.20
2018-05-12T07:05:04.912Z,8.50
2018-05-12T07:06:04.779Z,8.00
2018-05-12T07:07:04.818Z,7.80
2018-05-12T07:08:04.805Z,7.00
2018-05-12T07:09:04.847Z,5.60
2018-05-12T07:10:04.864Z,8.40
2018-05-12T07:11:05.008Z,9.40
2018-05-12T07:12:04.864Z,10.60
2018-05-12T07:13:04.913Z,7.30
2018-05-12T07:14:04.938Z,7.70
2018-05-12T07:15:04.913Z,9.30
2018-05-12T07:16:05.074Z,7.20
2018-05-12T07:17:04.965Z,7.30
2018-05-12T07:18:04.985Z,9.40
2018-05-12T07:19:04.981Z,8.40
2018-05-12T07:20:05.011Z,8.80
2018-05-12T07:21:05.147Z,8.00
2018-05-12T07:22:05.010Z,8.10
2018-05-12T07:23:05.054Z,9.40
2018-05-12T07:24:05.066Z,7.70
2018-05-12T07:25:05.081Z,7.00
2018-05-12T07:26:05.249Z,8.10
2018-05-12T07:27:05.091Z,6.50
2018-05-12T07:28:05.104Z,8.40
2018-05-12T07:29:05.129Z,7.50
2018-05-12T07:30:05.161Z,8.40
2018-05-12T07:31:05.254Z,7.10
2018-05-12T07:32:05.162Z,7.90
2018-05-12T07:33:05.174Z,9.80
2018-05-12T07:34:05.216Z,5.60
2018-05-12T07:35:05.233Z,8.50
2018-05-12T07:36:05.320Z,9.70
2018-05-12T07:37:05.230Z,11.40
2018-05-12T07:38:05.256Z,7.10
2018-05-12T07:39:05.341Z,9.20
2018-05-12T07:40:05.275Z,8.20
2018-05-12T07:41:05.421Z,6.90
2018-05-12T07:42:05.331Z,6.50
2018-05-12T07:43:05.334Z,8.30
2018-05-12T07:44:05.362Z,10.10
2018-05-12T07:45:05.459Z,8.10
2018-05-12T07:46:05.540Z,7.30
2018-05-12T07:47:05.382Z,6.60
2018-05-12T07:48:05.394Z,8.50
2018-05-12T07:49:05.401Z,7.30
2018-05-12T07:50:05.431Z,8.90
2018-05-12T07:51:05.583Z,8.60
2018-05-12T07:52:05.457Z,8.70
2018-05-12T07:53:05.487Z,10.30
2018-05-12T07:54:05.483Z,7.20
2018-05-12T07:55:05.490Z,9.60
2018-05-12T07:56:05.624Z,8.20
2018-05-12T07:57:05.547Z,9.50
2018-05-12T07:58:05.537Z,9.70
2018-05-12T07:59:05.575Z,9.80
2018-05-12T08:00:05.588Z,8.20
2018-05-12T08:01:05.752Z,8.50
2018-05-12T08:02:05.593Z,12.40
2018-05-12T08:03:05.603Z,8.50
2018-05-12T08:04:05.628Z,8.30
2018-05-12T08:05:05.661Z,8.70
2018-05-12T08:06:05.798Z,7.90
2018-05-12T08:07:05.661Z,7.20
2018-05-12T08:08:05.708Z,8.60
2018-05-12T08:09:05.692Z,9.90
2018-05-12T08:10:05.729Z,7.10
2018-05-12T08:11:05.832Z,10.10
2018-05-12T08:12:05.735Z,8.40
2018-05-12T08:13:05.779Z,8.30
2018-05-12T08:14:05.760Z,10.40
2018-05-12T08:15:05.849Z,6.50
2018-05-12T08:16:05.943Z,7.00
2018-05-12T08:17:05.803Z,8.70
2018-05-12T08:18:05.849Z,8.90
2018-05-12T08:19:05.860Z,8.80
2018-05-12T08:20:05.875Z,7.60
2018-05-12T08:21:05.962Z,8.10
2018-05-12T08:22:05.873Z,8.70
2018-05-12T08:23:05.895Z,10.80
2018-05-12T08:24:05.906Z,8.80
2018-05-12T08:25:05.944Z,9.90
2018-05-12T08:26:06.079Z,9.50
2018-05-12T08:27:05.976Z,10.10
2018-05-12T08:28:05.963Z,7.60
2018-05-12T08:29:05.975Z,8.20
2018-05-12T08:30:05.989Z,9.50
2018-05-12T08:31:06.155Z,10.20
2018-05-12T08:32:06.019Z,10.20
2018-05-12T08:33:06.035Z,7.70
2018-05-12T08:34:06.073Z,9.70
2018-05-12T08:35:06.066Z,7.10
2018-05-12T08:36:06.222Z,8.50
2018-05-12T08:37:06.112Z,8.10
2018-05-12T08:38:06.128Z,8.00
2018-05-12T08:39:06.130Z,6.40
2018-05-12T08:40:06.128Z,6.90
2018-05-12T08:41:06.306Z,10.00
2018-05-12T08:42:06.155Z,10.00
2018-05-12T08:43:06.198Z,10.10
2018-05-12T08:44:06.208Z,8.90
2018-05-12T08:45:06.212Z,7.10
2018-05-12T08:46:06.377Z,9.70
2018-05-12T08:47:06.255Z,6.70
2018-05-12T08:48:06.242Z,8.40
2018-05-12T08:49:06.252Z,7.90
2018-05-12T08:50:06.283Z,7.30
2018-05-12T08:51:06.409Z,7.50
2018-05-12T08:52:06.301Z,8.70
2018-05-12T08:53:06.341Z,9.60
2018-05-12T08:54:06.325Z,10.30
2018-05-12T08:55:06.363Z,9.10
2018-05-12T08:56:06.532Z,11.20
2018-05-12T08:57:06.365Z,9.00
2018-05-12T08:58:06.380Z,11.70
2018-05-12T08:59:06.413Z,6.60
2018-05-12T09:00:06.447Z,10.40
2018-05-12T09:01:06.583Z,9.40
2018-05-12T09:02:06.461Z,9.00
2018-05-12T09:03:06.465Z,11.40
2018-05-12T09:04:06.495Z,9.20
2018-05-12T09:05:06.480Z,6.10
2018-05-12T09:06:06.593Z,9.00
2018-05-12T09:07:06.585Z,8.60
2018-05-12T09:08:06.521Z,11.70
2018-05-12T09:09:06.536Z,8.40
2018-05-12T09:10:06.546Z,10.30
2018-05-12T09:11:06.714Z,9.60
2018-05-12T09:12:06.585Z,10.60
2018-05-12T09:13:06.601Z,9.30
2018-05-12T09:14:06.607Z,13.30
2018-05-12T09:15:06.631Z,17.90
2018-05-12T09:16:06.791Z,19.30
2018-05-12T09:17:06.647Z,25.70
2018-05-12T09:18:06.689Z,13.30
2018-05-12T09:19:06.706Z,12.10
2018-05-12T09:20:06.687Z,15.70
2018-05-12T09:21:06.858Z,14.90
2018-05-12T09:22:06.724Z,18.00
2018-05-12T09:23:06.757Z,12.80
2018-05-12T09:24:06.776Z,12.40
2018-05-12T09:25:06.768Z,11.30
2018-05-12T09:26:06.800Z,10.30
2018-05-12T09:27:06.888Z,8.50
2018-05-12T09:28:06.826Z,14.30
2018-05-12T09:29:06.817Z,9.80
2018-05-12T09:30:06.831Z,10.30
2018-05-12T09:31:06.858Z,11.40
2018-05-12T09:32:06.955Z,10.80
2018-05-12T09:33:06.898Z,13.80
2018-05-12T09:34:06.888Z,10.80
2018-05-12T09:35:06.926Z,9.70
2018-05-12T09:36:06.912Z,10.30
2018-05-12T09:37:07.052Z,10.60
2018-05-12T09:38:06.966Z,8.90
2018-05-12T09:39:06.953Z,11.80
2018-05-12T09:40:06.983Z,12.10
2018-05-12T09:41:06.984Z,13.60
2018-05-12T09:42:07.122Z,16.20
2018-05-12T09:43:07.012Z,15.60
2018-05-12T09:44:07.025Z,13.60
2018-05-12T09:45:07.061Z,13.40
2018-05-12T09:46:07.051Z,11.00
2018-05-12T09:47:07.175Z,14.10
2018-05-12T09:48:07.107Z,19.00
2018-05-12T09:49:07.095Z,14.60
2018-05-12T09:50:07.187Z,15.90
2018-05-12T09:51:07.149Z,16.60
2018-05-12T09:52:07.296Z,15.70
2018-05-12T09:53:07.175Z,11.40
2018-05-12T09:54:07.164Z,13.50
2018-05-12T09:55:07.201Z,10.90
2018-05-12T09:56:07.219Z,10.90
2018-05-12T09:57:07.380Z,11.10
2018-05-12T09:58:07.223Z,13.10
2018-05-12T09:59:07.240Z,10.00
2018-05-12T10:00:07.247Z,10.40
2018-05-12T10:01:07.264Z,8.40
2018-05-12T10:02:07.454Z,9.20
2018-05-12T10:03:07.314Z,8.90
2018-05-12T10:04:07.308Z,9.50
2018-05-12T10:05:07.314Z,9.00
2018-05-12T10:06:07.360Z,9.60
2018-05-12T10:07:07.497Z,9.60
2018-05-12T10:08:07.396Z,6.40
2018-05-12T10:09:07.374Z,13.50
2018-05-12T10:10:07.423Z,9.00
2018-05-12T10:11:07.407Z,9.50
2018-05-12T10:12:07.521Z,9.70
2018-05-12T10:13:07.447Z,9.70
2018-05-12T10:14:07.449Z,9.40
2018-05-12T10:15:07.465Z,10.90
2018-05-12T10:16:07.478Z,8.70
2018-05-12T10:17:07.592Z,9.00
2018-05-12T10:18:07.510Z,9.40
2018-05-12T10:19:07.518Z,11.00
2018-05-12T10:20:07.546Z,8.90
2018-05-12T10:21:07.579Z,10.10
2018-05-12T10:22:07.672Z,9.60
2018-05-12T10:23:07.579Z,9.30
2018-05-12T10:24:07.601Z,10.90
2018-05-12T10:25:07.642Z,8.10
2018-05-12T10:26:07.655Z,9.20
2018-05-12T10:27:07.771Z,9.90
2018-05-12T10:28:07.664Z,7.30
2018-05-12T10:29:07.700Z,8.10
2018-05-12T10:30:07.698Z,8.90
2018-05-12T10:31:07.707Z,10.90
2018-05-12T10:32:07.899Z,11.50
2018-05-12T10:33:07.741Z,12.20
2018-05-12T10:34:07.783Z,6.90
2018-05-12T10:35:07.769Z,6.30
2018-05-12T10:36:07.798Z,10.30
2018-05-12T10:37:07.807Z,9.30
2018-05-12T10:38:07.997Z,7.40
2018-05-12T10:39:07.837Z,7.40
2018-05-12T10:40:07.857Z,10.90
2018-05-12T10:41:07.867Z,8.30
2018-05-12T10:42:07.892Z,10.20
2018-05-12T10:43:08.079Z,8.00
2018-05-12T10:44:07.928Z,7.60
2018-05-12T10:45:07.933Z,7.90
2018-05-12T10:46:07.975Z,9.70
2018-05-12T10:47:07.977Z,9.70
2018-05-12T10:48:08.162Z,7.70
2018-05-12T10:49:08.026Z,7.80
2018-05-12T10:50:08.021Z,12.60
2018-05-12T10:51:08.063Z,9.00
2018-05-12T10:52:08.049Z,8.40
2018-05-12T10:53:08.221Z,8.10
2018-05-12T10:54:08.084Z,7.80
2018-05-12T10:55:08.111Z,8.30
2018-05-12T10:56:08.131Z,8.40
2018-05-12T10:57:08.139Z,9.40
2018-05-12T10:58:08.250Z,7.40
2018-05-12T10:59:08.172Z,6.70
2018-05-12T11:00:08.189Z,7.60
2018-05-12T11:01:08.210Z,11.00
2018-05-12T11:02:08.222Z,7.90
2018-05-12T11:03:08.419Z,7.60
2018-05-12T11:04:08.296Z,9.50
2018-05-12T11:05:08.281Z,7.40
2018-05-12T11:06:08.298Z,5.70
2018-05-12T11:07:08.315Z,6.80
2018-05-12T11:08:08.513Z,8.70
2018-05-12T11:09:08.365Z,6.20
2018-05-12T11:10:08.396Z,8.20
2018-05-12T11:11:08.406Z,7.30
2018-05-12T11:12:08.439Z,8.20
2018-05-12T11:13:08.539Z,7.10
2018-05-12T11:14:08.480Z,8.80
2018-05-12T11:15:08.464Z,9.10
2018-05-12T11:16:08.603Z,7.40
2018-05-12T11:17:08.541Z,5.80
2018-05-12T11:18:08.691Z,6.90
2018-05-12T11:19:08.573Z,5.10
2018-05-12T11:20:08.648Z,8.40
2018-05-12T11:21:08.578Z,6.90
2018-05-12T11:22:08.605Z,7.20
2018-05-12T11:23:08.723Z,7.40
2018-05-12T11:24:08.632Z,8.20
2018-05-12T11:25:08.647Z,9.20
2018-05-12T11:26:08.692Z,7.20
2018-05-12T11:27:08.710Z,7.50
2018-05-12T11:28:08.806Z,8.70
2018-05-12T11:29:08.750Z,7.70
2018-05-12T11:30:08.734Z,8.70
2018-05-12T11:31:08.758Z,7.90
2018-05-12T11:32:08.838Z,7.40
2018-05-12T11:33:08.795Z,8.80
2018-05-12T11:34:08.923Z,8.20
2018-05-12T11:35:08.845Z,8.30
2018-05-12T11:36:08.848Z,8.10
2018-05-12T11:37:08.897Z,8.10
2018-05-12T11:38:08.913Z,8.70
2018-05-12T11:39:09.052Z,10.40
2018-05-12T11:40:08.929Z,6.00
2018-05-12T11:41:08.965Z,10.10
2018-05-12T11:42:08.957Z,8.40
2018-05-12T11:43:09.003Z,7.80
2018-05-12T11:44:09.105Z,6.70
2018-05-12T11:45:09.040Z,9.40
2018-05-12T11:46:09.032Z,8.90
2018-05-12T11:47:09.050Z,9.30
2018-05-12T11:48:09.092Z,8.20
2018-05-12T11:49:09.191Z,7.20
2018-05-12T11:50:09.180Z,8.10
2018-05-12T11:51:09.150Z,10.40
2018-05-12T11:52:09.142Z,8.70
2018-05-12T11:53:09.185Z,9.40
2018-05-12T11:54:09.347Z,9.00
2018-05-12T11:55:09.194Z,7.90
2018-05-12T11:56:09.208Z,7.40
2018-05-12T11:57:09.228Z,10.60
2018-05-12T11:58:09.249Z,10.90
2018-05-12T11:59:09.424Z,10.10
2018-05-12T12:00:09.286Z,11.00
2018-05-12T12:01:09.332Z,7.30
2018-05-12T12:02:09.351Z,8.90
2018-05-12T12:03:09.365Z,9.50
2018-05-12T12:04:09.486Z,9.50
2018-05-12T12:05:09.372Z,8.30
2018-05-12T12:06:09.424Z,12.70
2018-05-12T12:07:09.440Z,10.60
2018-05-12T12:08:09.431Z,10.30
2018-05-12T12:09:09.605Z,10.50
2018-05-12T12:10:09.466Z,9.40
2018-05-12T12:11:09.514Z,10.80
2018-05-12T12:12:23.534Z,7.70
2018-05-12T12:14:10.628Z,10.30
2018-05-12T12:16:09.573Z,10.90
2018-05-12T12:17:09.593Z,10.20
2018-05-12T12:18:09.636Z,8.00
2018-05-12T12:19:09.781Z,7.70
2018-05-12T12:20:11.682Z,7.90
2018-05-12T12:21:11.715Z,10.10
2018-05-12T12:22:09.713Z,9.70
2018-05-12T12:23:09.730Z,9.40
2018-05-12T12:25:11.072Z,11.00
2018-05-12T12:26:09.780Z,9.90
2018-05-12T12:27:12.479Z,11.70
2018-05-12T12:28:09.791Z,9.00
2018-05-12T12:29:09.843Z,8.10
2018-05-12T12:30:09.967Z,10.00
2018-05-12T12:31:09.877Z,10.50
2018-05-12T12:32:09.861Z,9.30
2018-05-12T12:33:09.891Z,13.50
2018-05-12T12:34:09.937Z,9.80
2018-05-12T12:36:23.299Z,8.00
2018-05-12T12:37:09.960Z,6.10
2018-05-12T12:38:09.979Z,6.60
2018-05-12T12:39:10.003Z,8.10
2018-05-12T12:40:10.147Z,6.80
2018-05-12T12:41:10.066Z,10.90
2018-05-12T12:42:10.091Z,8.20
2018-05-12T12:43:10.082Z,10.10
2018-05-12T12:44:10.126Z,10.70
2018-05-12T12:45:10.327Z,8.00
2018-05-12T12:46:10.171Z,9.50
2018-05-12T12:47:10.162Z,7.60
2018-05-12T12:48:10.182Z,7.40
2018-05-12T12:49:10.205Z,8.30
2018-05-12T12:50:10.391Z,14.40
2018-05-12T12:51:10.251Z,11.40
2018-05-12T12:52:10.273Z,7.00
2018-05-12T12:53:10.315Z,9.70
2018-05-12T12:54:10.337Z,8.50
2018-05-12T12:55:10.463Z,8.70
2018-05-12T12:56:10.388Z,10.50
2018-05-12T12:57:10.377Z,9.70
2018-05-12T12:58:10.407Z,10.30
2018-05-12T12:59:10.451Z,8.70
2018-05-12T13:00:10.570Z,7.00
2018-05-12T13:01:10.465Z,10.90
2018-05-12T13:02:10.521Z,8.10
2018-05-12T13:03:10.520Z,9.30
2018-05-12T13:04:10.561Z,7.60
2018-05-12T13:05:10.683Z,12.40
2018-05-12T13:06:10.593Z,10.50
2018-05-12T13:07:10.629Z,10.80